createdAt,value
2018-12-01T00:00:30.078Z,44.47
2018-12-01T00:02:59.492Z,46.20
2018-12-01T00:05:34.417Z,46.87
2018-12-01T00:08:04.006Z,45.37
2018-12-01T00:10:33.011Z,46.53
2018-12-01T00:13:02.001Z,44.13
2018-12-01T00:15:31.258Z,42.37
2018-12-01T00:18:00.463Z,41.23
2018-12-01T00:20:35.301Z,44.23
2018-12-01T00:23:05.059Z,44.43
2018-12-01T00:25:34.136Z,44.10
2018-12-01T00:28:03.678Z,40.90
2018-12-01T00:30:32.635Z,42.17
2018-12-01T00:33:01.646Z,41.30
2018-12-01T00:35:30.627Z,40.70
2018-12-01T00:37:59.703Z,43.27
2018-12-01T00:40:28.676Z,45.13
2018-12-01T00:42:57.675Z,44.27
2018-12-01T00:45:26.695Z,43.03
2018-12-01T00:47:55.634Z,43.50
2018-12-01T00:50:24.965Z,43.23
2018-12-01T00:52:54.296Z,44.30
2018-12-01T00:55:23.417Z,43.50
2018-12-01T00:57:52.456Z,44.17
2018-12-01T01:00:27.316Z,43.80
2018-12-01T01:02:58.129Z,44.60
2018-12-01T01:05:31.157Z,42.93
2018-12-01T01:08:00.945Z,42.90
2018-12-01T01:10:32.704Z,42.90
2018-12-01T01:13:01.729Z,44.60
2018-12-01T01:15:30.722Z,43.77
2018-12-01T01:17:59.719Z,44.50
2018-12-01T01:20:28.745Z,44.47
2018-12-01T01:22:57.738Z,43.97
2018-12-01T01:25:26.838Z,45.23
2018-12-01T01:27:55.802Z,47.20
2018-12-01T01:30:24.883Z,46.57
2018-12-01T01:33:32.097Z,44.83
2018-12-01T01:36:01.099Z,46.70
2018-12-01T01:38:30.064Z,47.60
2018-12-01T01:41:04.507Z,45.30
2018-12-01T01:43:33.496Z,45.57
2018-12-01T01:46:02.510Z,46.17
2018-12-01T01:48:31.484Z,48.37
2018-12-01T01:51:00.527Z,47.73
2018-12-01T01:53:29.520Z,45.97
2018-12-01T01:55:58.505Z,48.30
2018-12-01T01:58:27.577Z,49.17
2018-12-01T02:00:56.585Z,48.43
2018-12-01T02:03:25.643Z,48.93
2018-12-01T02:05:54.633Z,47.47
2018-12-01T02:08:23.612Z,49.83
2018-12-01T02:10:52.894Z,48.67
2018-12-01T02:13:21.839Z,48.17
2018-12-01T02:15:50.829Z,49.50
2018-12-01T02:18:19.795Z,47.33
2018-12-01T02:20:48.808Z,47.70
2018-12-01T02:23:17.856Z,50.10
2018-12-01T02:25:46.827Z,47.53
2018-12-01T02:28:15.817Z,48.07
2018-12-01T02:30:44.827Z,47.23
2018-12-01T02:33:14.038Z,47.77
2018-12-01T02:35:43.090Z,50.07
2018-12-01T02:38:12.064Z,46.80
2018-12-01T02:40:41.043Z,47.30
2018-12-01T02:43:10.091Z,48.80
2018-12-01T02:45:55.809Z,48.10
2018-12-01T02:48:24.773Z,43.47
2018-12-01T02:50:53.745Z,46.13
2018-12-01T02:53:22.847Z,47.90
2018-12-01T02:55:51.821Z,47.20
2018-12-01T02:58:20.916Z,46.20
2018-12-01T03:00:49.963Z,46.60
2018-12-01T03:03:18.992Z,45.47
2018-12-01T03:05:47.960Z,46.40
2018-12-01T03:08:16.988Z,46.20
2018-12-01T03:10:46.007Z,46.53
2018-12-01T03:13:15.002Z,45.17
2018-12-01T03:15:44.040Z,48.00
2018-12-01T03:18:13.721Z,45.87
2018-12-01T03:20:42.217Z,46.07
2018-12-01T03:23:11.267Z,44.10
2018-12-01T03:25:40.247Z,45.50
2018-12-01T03:28:09.316Z,45.03
2018-12-01T03:30:39.005Z,46.23
2018-12-01T03:33:08.076Z,46.80
2018-12-01T03:35:37.106Z,44.53
2018-12-01T03:38:06.155Z,44.33
2018-12-01T03:40:40.592Z,46.80
2018-12-01T03:43:09.678Z,44.87
2018-12-01T03:45:38.721Z,44.73
2018-12-01T03:48:07.862Z,46.30
2018-12-01T03:50:36.910Z,44.33
2018-12-01T03:53:06.724Z,45.23
2018-12-01T03:55:35.891Z,45.90
2018-12-01T03:58:04.960Z,45.30
2018-12-01T04:00:36.467Z,46.87
2018-12-01T04:03:06.891Z,46.63
2018-12-01T04:05:35.852Z,46.87
2018-12-01T04:08:04.869Z,47.37
2018-12-01T04:10:33.912Z,45.73
2018-12-01T04:13:02.958Z,46.83
2018-12-01T04:15:31.992Z,44.70
2018-12-01T04:18:01.038Z,48.73
2018-12-01T04:20:30.021Z,48.03
2018-12-01T04:22:59.139Z,46.53
2018-12-01T04:25:28.196Z,46.30
2018-12-01T04:27:57.154Z,48.07
2018-12-01T04:30:26.522Z,46.70
2018-12-01T04:32:55.652Z,47.03
2018-12-01T04:35:24.907Z,49.30
2018-12-01T04:37:55.465Z,48.57
2018-12-01T04:40:25.257Z,48.00
2018-12-01T04:42:54.310Z,47.30
2018-12-01T04:45:23.361Z,49.03
2018-12-01T04:47:52.446Z,48.77
2018-12-01T04:50:21.521Z,47.20
2018-12-01T04:52:50.586Z,48.90
2018-12-01T04:55:20.562Z,49.43
2018-12-01T04:57:49.627Z,51.07
2018-12-01T05:00:21.514Z,50.60
2018-12-01T05:02:50.553Z,49.97
2018-12-01T05:05:22.204Z,47.47
2018-12-01T05:07:51.358Z,48.97
2018-12-01T05:10:21.912Z,47.27
2018-12-01T05:12:50.918Z,50.53
2018-12-01T05:15:20.165Z,48.77
2018-12-01T05:17:49.186Z,47.70
2018-12-01T05:20:21.721Z,48.60
2018-12-01T05:22:51.777Z,50.00
2018-12-01T05:25:20.864Z,48.87
2018-12-01T05:27:50.033Z,49.50
2018-12-01T05:30:19.043Z,48.77
2018-12-01T05:32:48.064Z,49.50
2018-12-01T05:35:20.721Z,49.17
2018-12-01T05:37:49.528Z,48.60
2018-12-01T05:40:19.309Z,50.23
2018-12-01T05:42:49.270Z,52.10
2018-12-01T05:45:20.677Z,56.17
2018-12-01T05:47:50.306Z,58.70
2018-12-01T05:50:25.126Z,60.30
2018-12-01T05:52:55.690Z,57.57
2018-12-01T05:55:24.958Z,54.63
2018-12-01T05:57:54.293Z,56.93
2018-12-01T06:00:23.332Z,55.87
2018-12-01T06:02:52.355Z,55.80
2018-12-01T06:05:21.377Z,53.70
2018-12-01T06:07:50.471Z,58.87
2018-12-01T06:10:22.230Z,55.00
2018-12-01T06:12:52.739Z,56.13
2018-12-01T06:15:21.856Z,58.47
2018-12-01T06:17:50.643Z,63.57
2018-12-01T06:20:21.572Z,59.73
2018-12-01T06:22:50.629Z,58.13
2018-12-01T06:25:21.571Z,55.70
2018-12-01T06:27:50.429Z,56.00
2018-12-01T06:30:20.557Z,56.13
2018-12-01T06:32:50.941Z,57.67
2018-12-01T06:35:19.971Z,54.67
2018-12-01T06:37:49.104Z,52.80
2018-12-01T06:40:20.777Z,54.90
2018-12-01T06:42:49.909Z,56.83
2018-12-01T06:45:18.803Z,54.90
2018-12-01T06:47:47.820Z,58.73
2018-12-01T06:50:22.746Z,58.43
2018-12-01T06:52:53.094Z,56.10
2018-12-01T06:55:23.340Z,58.17
2018-12-01T06:57:53.163Z,58.13
2018-12-01T07:00:25.169Z,56.23
2018-12-01T07:02:55.821Z,56.77
2018-12-01T07:05:25.831Z,57.37
2018-12-01T07:07:54.931Z,59.07
2018-12-01T07:10:24.263Z,57.33
2018-12-01T07:12:57.718Z,57.57
2018-12-01T07:15:29.543Z,57.23
2018-12-01T07:17:58.602Z,60.37
2018-12-01T07:20:27.655Z,60.23
2018-12-01T07:22:56.704Z,58.93
2018-12-01T07:25:25.683Z,58.33
2018-12-01T07:27:54.698Z,57.00
2018-12-01T07:30:23.756Z,58.87
2018-12-01T07:32:52.756Z,59.17
2018-12-01T07:35:21.780Z,56.67
2018-12-01T07:37:50.754Z,58.67
2018-12-01T07:40:19.829Z,56.63
2018-12-01T07:42:48.872Z,59.40
2018-12-01T07:45:17.891Z,56.93
2018-12-01T07:47:46.868Z,59.07
2018-12-01T07:50:17.487Z,58.97
2018-12-01T07:52:52.150Z,56.63
2018-12-01T07:55:21.160Z,56.97
2018-12-01T07:57:50.370Z,56.23
2018-12-01T08:00:19.582Z,56.07
2018-12-01T08:02:49.823Z,56.37
2018-12-01T08:05:18.867Z,56.57
2018-12-01T08:07:47.900Z,55.47
2018-12-01T08:10:17.220Z,56.30
2018-12-01T08:12:46.240Z,55.67
2018-12-01T08:15:17.360Z,55.93
2018-12-01T08:17:47.200Z,57.93
2018-12-01T08:20:17.156Z,55.87
2018-12-01T08:22:46.172Z,54.37
2018-12-01T08:25:19.708Z,54.80
2018-12-01T08:27:51.873Z,54.77
2018-12-01T08:30:23.771Z,54.83
2018-12-01T08:32:53.078Z,53.83
2018-12-01T08:35:22.534Z,50.97
2018-12-01T08:37:52.172Z,54.67
2018-12-01T08:40:26.384Z,55.07
2018-12-01T08:42:55.411Z,52.10
2018-12-01T08:45:24.438Z,55.23
2018-12-01T08:47:53.483Z,55.63
2018-12-01T08:50:23.721Z,57.20
2018-12-01T08:52:53.266Z,55.97
2018-12-01T08:55:24.350Z,52.23
2018-12-01T08:57:54.273Z,52.63
2018-12-01T09:00:32.910Z,55.47
2018-12-01T09:03:06.565Z,55.27
2018-12-01T09:05:35.628Z,53.73
2018-12-01T09:08:05.401Z,55.10
2018-12-01T09:10:34.427Z,55.33
2018-12-01T09:13:03.447Z,53.90
2018-12-01T09:15:36.829Z,51.97
2018-12-01T09:18:01.453Z,51.67
2018-12-01T09:20:30.542Z,49.83
2018-12-01T09:22:59.591Z,52.60
2018-12-01T09:25:28.625Z,53.23
2018-12-01T09:27:57.657Z,52.37
2018-12-01T09:30:29.424Z,52.93
2018-12-01T09:32:58.462Z,51.30
2018-12-01T09:35:27.501Z,54.10
2018-12-01T09:37:56.496Z,50.60
2018-12-01T09:40:25.715Z,51.80
2018-12-01T09:42:54.721Z,49.90
2018-12-01T09:45:25.052Z,48.03
2018-12-01T09:47:55.651Z,49.43
2018-12-01T09:50:24.761Z,49.17
2018-12-01T09:52:56.391Z,49.53
2018-12-01T09:55:28.058Z,48.43
2018-12-01T09:57:58.590Z,46.03
2018-12-01T10:00:30.953Z,48.87
2018-12-01T10:03:01.514Z,49.33
2018-12-01T10:05:31.362Z,49.20
2018-12-01T10:08:00.437Z,49.73
2018-12-01T10:10:29.513Z,48.87
2018-12-01T10:12:58.915Z,48.47
2018-12-01T10:15:34.541Z,47.67
2018-12-01T10:18:03.696Z,47.10
2018-12-01T10:20:35.015Z,47.23
2018-12-01T10:23:09.492Z,47.23
2018-12-01T10:25:38.515Z,46.60
2018-12-01T10:28:09.472Z,47.57
2018-12-01T10:30:38.592Z,47.37
2018-12-01T10:33:07.931Z,47.13
2018-12-01T10:35:37.644Z,48.80
2018-12-01T10:38:11.415Z,46.63
2018-12-01T10:40:40.794Z,48.73
2018-12-01T10:43:09.792Z,46.47
2018-12-01T10:45:38.832Z,48.90
2018-12-01T10:48:09.255Z,47.40
2018-12-01T10:50:39.018Z,45.97
2018-12-01T10:53:08.403Z,45.13
2018-12-01T10:55:37.506Z,46.50
2018-12-01T10:58:12.777Z,44.17
2018-12-01T11:00:48.977Z,48.37
2018-12-01T11:03:23.884Z,49.43
2018-12-01T11:05:54.073Z,47.80
2018-12-01T11:08:23.195Z,48.37
2018-12-01T11:10:55.191Z,48.10
2018-12-01T11:13:21.625Z,48.13
2018-12-01T11:15:50.696Z,47.30
2018-12-01T11:18:19.783Z,47.83
2018-12-01T11:20:48.911Z,47.80
2018-12-01T11:23:18.006Z,46.73
2018-12-01T11:25:47.125Z,47.83
2018-12-01T11:28:16.148Z,49.17
2018-12-01T11:30:45.272Z,48.67
2018-12-01T11:33:14.355Z,47.47
2018-12-01T11:35:43.460Z,48.27
2018-12-01T11:38:12.502Z,47.10
2018-12-01T11:40:41.581Z,49.03
2018-12-01T11:43:10.852Z,45.77
2018-12-01T11:45:40.017Z,46.40
2018-12-01T11:48:09.747Z,46.50
2018-12-01T11:50:40.441Z,50.20
2018-12-01T11:53:10.485Z,46.37
2018-12-01T11:55:39.569Z,47.47
2018-12-01T11:58:08.588Z,46.30
2018-12-01T12:00:37.839Z,46.80
2018-12-01T12:03:06.901Z,48.27
2018-12-01T12:05:36.028Z,47.77
2018-12-01T12:08:26.023Z,45.43
2018-12-01T12:10:55.544Z,46.10
2018-12-01T12:13:26.017Z,47.30
2018-12-01T12:15:55.379Z,48.13
2018-12-01T12:18:24.501Z,46.27
2018-12-01T12:20:53.589Z,46.83
2018-12-01T12:23:22.618Z,47.53
2018-12-01T12:25:51.652Z,45.97
2018-12-01T12:28:20.724Z,45.80
2018-12-01T12:30:49.724Z,48.07
2018-12-01T12:33:19.486Z,48.30
2018-12-01T12:35:48.813Z,46.93
2018-12-01T12:38:22.465Z,46.57
2018-12-01T12:40:52.064Z,47.87
2018-12-01T12:43:22.155Z,47.83
2018-12-01T12:45:51.376Z,47.70
2018-12-01T12:48:20.598Z,48.27
2018-12-01T12:50:53.081Z,48.70
2018-12-01T12:53:18.762Z,48.93
2018-12-01T12:55:47.844Z,49.70
2018-12-01T12:58:17.019Z,48.20
2018-12-01T13:00:46.006Z,49.13
2018-12-01T13:03:15.030Z,49.43
2018-12-01T13:05:45.620Z,48.37
2018-12-01T13:08:17.783Z,49.07
2018-12-01T13:10:46.973Z,48.97
2018-12-01T13:13:16.122Z,48.63
2018-12-01T13:15:45.266Z,51.60
2018-12-01T13:18:15.071Z,50.67
2018-12-01T13:20:46.162Z,49.77
2018-12-01T13:23:15.343Z,48.47
2018-12-01T13:25:44.480Z,46.60
2018-12-01T13:28:15.869Z,48.07
2018-12-01T13:30:52.299Z,50.20
2018-12-01T13:33:21.492Z,51.33
2018-12-01T13:35:50.578Z,49.73
2018-12-01T13:38:19.739Z,48.33
2018-12-01T13:40:48.793Z,50.17
2018-12-01T13:43:17.867Z,49.47
2018-12-01T13:45:46.972Z,48.00
2018-12-01T13:48:15.973Z,49.80
2018-12-01T13:50:45.004Z,47.53
2018-12-01T13:53:14.721Z,48.27
2018-12-01T13:55:43.824Z,42.00
2018-12-01T13:58:12.884Z,46.53
2018-12-01T14:00:42.197Z,44.70
2018-12-01T14:03:11.388Z,48.13
2018-12-01T14:05:41.840Z,46.77
2018-12-01T14:08:10.904Z,45.13
2018-12-01T14:10:44.116Z,46.80
2018-12-01T14:13:14.223Z,44.10
2018-12-01T14:15:43.328Z,44.47
2018-12-01T14:18:13.221Z,40.67
2018-12-01T14:20:42.203Z,44.57
2018-12-01T14:23:11.209Z,41.67
2018-12-01T14:25:40.226Z,42.50
2018-12-01T14:28:11.030Z,44.20
2018-12-01T14:30:40.061Z,43.07
2018-12-01T14:33:11.150Z,44.37
2018-12-01T14:35:40.262Z,44.53
2018-12-01T14:38:14.055Z,45.23
2018-12-01T14:40:45.724Z,43.50
2018-12-01T14:43:14.793Z,43.33
2018-12-01T14:45:45.530Z,45.73
2018-12-01T14:48:14.526Z,45.60
2018-12-01T14:50:48.312Z,46.30
2018-12-01T14:53:14.802Z,46.33
2018-12-01T14:55:43.866Z,45.50
2018-12-01T14:58:12.908Z,47.10
2018-12-01T15:00:41.969Z,47.53
2018-12-01T15:03:11.122Z,46.43
2018-12-01T15:05:41.249Z,44.80
2018-12-01T15:08:10.352Z,44.07
2018-12-01T15:10:39.471Z,44.67
2018-12-01T15:13:08.563Z,47.33
2018-12-01T15:15:37.746Z,50.27
2018-12-01T15:18:07.004Z,48.70
2018-12-01T15:20:36.049Z,48.03
2018-12-01T15:23:06.313Z,48.40
2018-12-01T15:25:35.550Z,49.47
2018-12-01T15:28:04.976Z,49.60
2018-12-01T15:30:34.271Z,46.60
2018-12-01T15:33:12.314Z,50.47
2018-12-01T15:35:42.800Z,46.87
2018-12-01T15:38:11.917Z,48.93
2018-12-01T15:40:44.210Z,48.37
2018-12-01T15:43:13.275Z,50.40
2018-12-01T15:45:42.703Z,50.43
2018-12-01T15:48:11.793Z,50.13
2018-12-01T15:50:41.161Z,49.40
2018-12-01T15:53:16.791Z,53.93
2018-12-01T15:55:45.898Z,52.67
2018-12-01T15:58:14.981Z,57.17
2018-12-01T16:00:44.439Z,52.50
2018-12-01T16:03:13.558Z,55.77
2018-12-01T16:05:43.453Z,51.90
2018-12-01T16:08:12.622Z,52.63
2018-12-01T16:10:41.686Z,52.70
2018-12-01T16:13:16.164Z,51.63
2018-12-01T16:15:49.017Z,55.37
2018-12-01T16:18:18.047Z,53.53
2018-12-01T16:20:47.110Z,55.63
2018-12-01T16:23:16.228Z,54.53
2018-12-01T16:25:45.396Z,56.97
2018-12-01T16:28:14.379Z,61.33
2018-12-01T16:30:45.192Z,55.63
2018-12-01T16:33:16.971Z,56.17
2018-12-01T16:35:46.125Z,59.23
2018-12-01T16:38:23.704Z,52.43
2018-12-01T16:40:56.215Z,55.50
2018-12-01T16:43:26.647Z,59.33
2018-12-01T16:45:56.156Z,60.97
2018-12-01T16:48:25.169Z,65.60
2018-12-01T16:50:54.228Z,62.30
2018-12-01T16:53:23.683Z,57.03
2018-12-01T16:55:52.932Z,57.57
2018-12-01T16:58:21.997Z,59.80
2018-12-01T17:00:51.075Z,60.67
2018-12-01T17:03:20.079Z,59.07
2018-12-01T17:05:53.805Z,58.80
2018-12-01T17:08:22.853Z,53.20
2018-12-01T17:10:52.056Z,56.43
2018-12-01T17:13:21.080Z,55.10
2018-12-01T17:15:50.085Z,59.13
2018-12-01T17:18:19.155Z,54.80
2018-12-01T17:20:48.225Z,57.23
2018-12-01T17:23:17.648Z,58.30
2018-12-01T17:25:46.603Z,57.77
2018-12-01T17:28:19.796Z,56.80
2018-12-01T17:30:49.577Z,61.90
2018-12-01T17:33:18.935Z,57.20
2018-12-01T17:35:48.009Z,60.57
2018-12-01T17:38:20.034Z,58.97
2018-12-01T17:41:00.454Z,56.83
2018-12-01T17:43:38.832Z,59.73
2018-12-01T17:46:07.853Z,56.80
2018-12-01T17:48:36.958Z,62.00
2018-12-01T17:51:06.036Z,56.50
2018-12-01T17:53:35.003Z,54.93
2018-12-01T17:56:04.093Z,57.43
2018-12-01T17:58:33.296Z,58.80
2018-12-01T18:01:02.256Z,63.90
2018-12-01T18:03:31.306Z,58.20
2018-12-01T18:06:00.431Z,59.57
2018-12-01T18:08:29.457Z,60.93
2018-12-01T18:10:58.422Z,59.43
2018-12-01T18:13:27.475Z,58.03
2018-12-01T18:15:56.497Z,57.70
2018-12-01T18:18:25.504Z,55.10
2018-12-01T18:20:54.844Z,53.47
2018-12-01T18:23:23.860Z,55.60
2018-12-01T18:25:54.518Z,56.13
2018-12-01T18:28:26.742Z,57.67
2018-12-01T18:30:57.133Z,53.33
2018-12-01T18:33:31.111Z,59.47
2018-12-01T18:36:00.575Z,58.40
2018-12-01T18:38:29.846Z,54.93
2018-12-01T18:40:59.827Z,57.07
2018-12-01T18:43:29.754Z,56.40
2018-12-01T18:46:01.724Z,56.13
2018-12-01T18:48:31.012Z,55.43
2018-12-01T18:51:00.036Z,58.37
2018-12-01T18:53:29.016Z,55.97
2018-12-01T18:55:58.485Z,59.37
2018-12-01T18:58:27.512Z,59.10
2018-12-01T19:00:57.551Z,57.20
2018-12-01T19:03:29.658Z,59.10
2018-12-01T19:05:58.700Z,57.90
2018-12-01T19:08:27.735Z,62.53
2018-12-01T19:10:56.778Z,59.00
2018-12-01T19:13:25.765Z,63.50
2018-12-01T19:15:55.240Z,74.70
2018-12-01T19:18:24.558Z,66.10
2018-12-01T19:20:53.580Z,81.27
2018-12-01T19:23:22.712Z,99.47
2018-12-01T19:25:52.368Z,86.83
2018-12-01T19:28:21.450Z,76.33
2018-12-01T19:30:50.454Z,68.67
2018-12-01T19:33:21.353Z,62.13
2018-12-01T19:35:52.356Z,59.63
2018-12-01T19:38:26.907Z,62.27
2018-12-01T19:40:58.236Z,57.67
2018-12-01T19:43:27.204Z,52.40
2018-12-01T19:45:56.216Z,52.37
2018-12-01T19:48:25.298Z,53.67
2018-12-01T19:50:54.326Z,56.73
2018-12-01T19:53:23.383Z,53.90
2018-12-01T19:55:53.616Z,50.50
2018-12-01T19:58:24.812Z,50.47
2018-12-01T20:00:56.435Z,47.17
2018-12-01T20:03:27.171Z,49.17
2018-12-01T20:05:56.188Z,48.83
2018-12-01T20:08:25.566Z,48.60
2018-12-01T20:10:57.790Z,50.07
2018-12-01T20:13:36.364Z,51.47
2018-12-01T20:16:40.130Z,55.27
2018-12-01T20:19:09.467Z,60.23
2018-12-01T20:21:38.511Z,64.33
2018-12-01T20:24:08.540Z,66.17
2018-12-01T20:26:39.289Z,61.50
2018-12-01T20:29:08.327Z,68.37
2018-12-01T20:31:37.330Z,66.80
2018-12-01T20:34:07.185Z,64.73
2018-12-01T20:36:43.986Z,62.67
2018-12-01T20:39:27.182Z,63.40
2018-12-01T20:41:56.185Z,67.17
2018-12-01T20:44:25.339Z,66.10
2018-12-01T20:46:54.503Z,67.97
2018-12-01T20:49:23.526Z,66.13
2018-12-01T20:51:52.633Z,69.47
2018-12-01T20:54:35.182Z,65.13
2018-12-01T20:57:12.867Z,70.33
2018-12-01T20:59:41.895Z,66.40
2018-12-01T21:02:10.944Z,63.57
2018-12-01T21:04:39.944Z,66.50
2018-12-01T21:07:08.997Z,67.43
2018-12-01T21:09:38.064Z,64.47
2018-12-01T21:12:09.295Z,66.17
2018-12-01T21:14:38.377Z,64.50
2018-12-01T21:17:07.461Z,64.73
2018-12-01T21:19:36.471Z,64.90
2018-12-01T21:22:06.551Z,66.23
2018-12-01T21:24:35.624Z,63.60
2018-12-01T21:27:05.659Z,66.03
2018-12-01T21:29:34.746Z,68.40
2018-12-01T21:32:03.792Z,69.13
2018-12-01T21:34:32.832Z,69.70
2018-12-01T21:37:01.931Z,66.60
2018-12-01T21:39:31.177Z,69.17
2018-12-01T21:42:00.327Z,68.07
2018-12-01T21:44:29.447Z,65.63
2018-12-01T21:46:58.453Z,65.67
2018-12-01T21:49:27.500Z,68.73
2018-12-01T21:51:56.564Z,67.47
2018-12-01T21:54:25.623Z,65.43
2018-12-01T21:56:54.637Z,67.07
2018-12-01T21:59:23.734Z,71.87
2018-12-01T22:01:52.787Z,75.43
2018-12-01T22:04:21.750Z,82.13
2018-12-01T22:06:50.767Z,77.17
2018-12-01T22:09:19.906Z,72.17
2018-12-01T22:11:48.888Z,69.03
2018-12-01T22:14:17.943Z,66.50
2018-12-01T22:16:46.995Z,73.03
2018-12-01T22:19:16.060Z,70.07
2018-12-01T22:21:45.077Z,69.47
2018-12-01T22:24:14.151Z,67.80
2018-12-01T22:26:43.265Z,67.23
2018-12-01T22:29:13.346Z,64.57
2018-12-01T22:31:42.988Z,60.97
2018-12-01T22:34:11.977Z,60.80
2018-12-01T22:36:40.955Z,65.50
2018-12-01T22:39:11.087Z,62.70
2018-12-01T22:41:40.160Z,59.57
2018-12-01T22:44:09.242Z,60.07
2018-12-01T22:46:38.389Z,58.60
2018-12-01T22:49:07.481Z,57.70
2018-12-01T22:51:36.523Z,55.63
2018-12-01T22:54:06.106Z,62.30
2018-12-01T22:56:35.300Z,61.10
2018-12-01T22:59:04.348Z,61.70
2018-12-01T23:01:33.376Z,61.10
2018-12-01T23:04:02.380Z,60.63
2018-12-01T23:06:31.416Z,61.23
2018-12-01T23:09:00.496Z,58.97
2018-12-01T23:11:29.586Z,60.83
2018-12-01T23:13:58.566Z,59.47
2018-12-01T23:16:27.590Z,58.50
2018-12-01T23:18:56.572Z,61.93
2018-12-01T23:21:25.568Z,64.83
2018-12-01T23:23:54.639Z,62.77
2018-12-01T23:26:23.598Z,64.80
2018-12-01T23:28:52.683Z,63.60
2018-12-01T23:31:21.680Z,67.43
2018-12-01T23:33:50.739Z,63.93
2018-12-01T23:36:19.784Z,66.03
2018-12-01T23:38:48.824Z,67.47
2018-12-01T23:41:17.882Z,65.53
2018-12-01T23:43:46.856Z,68.93
2018-12-01T23:46:15.910Z,70.37
2018-12-01T23:48:44.921Z,68.90
2018-12-01T23:51:13.921Z,67.57
2018-12-01T23:53:42.926Z,69.03
2018-12-01T23:56:12.005Z,68.10
2018-12-01T23:58:41.577Z,67.87
